Werte bis 5 Uhr SommerzeitDiagramme Mardorf: Tagesdaten MonatsdatenCSV-Datei: Mardorf21.csv

Wetterdaten 2021 Station: Mardorf
Temperaturen in °C relative Nieder- Global- Wind Wind Wind- Sonnen-
Datum Boden Boden Luft Luft Luft Luft Feuchte schlag strahlung max richtung schein
20 cm 5 cm 20 cm 2 m 2 m max 2 m min % mm W/m2*d m/s m/s ° h

06.05.2021 8,8 7,9 2,7 3,5 4,2 2,3 87 0,0 0 3,2 8,9 --- ---
05.05.2021 8,8 8,5 6,2 5,9 8,9 3,6 79 0,0 3964 5,2 15,2 --- 10,7
04.05.2021 9,5 9,2 8,8 9,2 11,1 5,9 69 0,0 1701 6,5 22,1 --- 4,5
03.05.2021 9,5 9,7 8,3 7,6 13,2 1,1 62 0,1 5888 2,9 11,0 --- 11,4
02.05.2021 10,1 10,1 7,1 6,9 9,9 3,2 69 0,1 2229 1,9 10,4 --- 7,0
01.05.2021 10,2 10,9 10,3 9,3 13,2 5,5 73 0,2 4298 1,3 5,8 --- 11,4
30.04.2021 10,1 10,2 8,2 7,5 11,5 5,0 78 0,3 2513 2,1 7,8 --- 9,4
29.04.2021 10,8 11,5 10,5 10,0 14,4 5,5 79 0,7 4189 3,8 12,3 --- 9,5
28.04.2021 9,9 10,8 12,2 11,5 20,3 1,3 51 0,0 5745 1,6 9,4 --- 11,1
27.04.2021 9,5 10,1 9,4 8,1 15,0 0,6 47 0,0 6761 3,2 8,9 --- 11,6
26.04.2021 9,1 9,7 7,8 6,6 13,9 -1,4 51 0,0 6796 2,2 7,3 --- 11,7
25.04.2021 9,2 9,6 5,9 4,6 10,3 -1,3 68 0,0 6177 2,5 9,6 --- 11,8
24.04.2021 9,3 9,8 7,1 6,3 13,2 0,1 70 0,0 5414 2,0 8,0 --- 11,2
23.04.2021 9,2 9,7 6,8 6,1 13,5 -0,5 69 0,0 5099 1,7 7,0 --- 10,7
22.04.2021 9,4 10,1 6,8 5,9 11,2 0,2 64 0,0 6129 2,4 10,4 --- 11,1
21.04.2021 9,4 10,4 10,6 10,2 16,9 4,1 73 0,5 4581 2,0 8,4 --- 10,5
20.04.2021 8,3 9,5 9,8 9,0 17,5 2,3 81 0,5 5791 1,7 10,8 --- 9,9
19.04.2021 7,8 8,6 8,5 7,9 13,9 4,1 85 1,3 3035 1,7 7,0 --- 8,7
18.04.2021 6,9 7,6 7,7 7,4 14,0 4,7 86 2,2 2313 0,9 7,5 --- 6,3
17.04.2021 6,6 6,5 5,2 5,1 8,5 0,7 69 0,0 1852 1,6 5,5 --- 7,9
16.04.2021 6,4 6,7 6,2 5,5 10,1 1,1 63 0,0 3578 1,9 9,1 --- 9,5
15.04.2021 6,2 5,9 2,7 2,4 8,0 -2,9 80 0,1 2863 1,6 10,7 --- 7,4
14.04.2021 6,4 6,3 2,7 2,1 8,3 -1,6 83 0,2 4285 1,5 11,3 --- 10,2
13.04.2021 6,5 6,4 3,0 2,5 8,3 -2,4 79 0,1 4032 1,3 9,2 --- 9,9
12.04.2021 6,9 6,9 3,5 2,9 8,1 -0,5 85 2,8 3359 1,4 9,6 --- 8,2
11.04.2021 7,3 7,7 7,3 7,4 13,4 1,3 87 18,2 1290 2,2 9,8 --- 3,1
10.04.2021 6,5 7,1 7,4 7,2 9,6 5,0 90 0,3 1622 1,2 4,9 --- 5,8
09.04.2021 5,3 5,5 7,5 7,1 13,8 1,1 57 0,0 4730 2,7 11,0 --- 10,3
08.04.2021 5,0 4,5 2,5 2,3 5,6 -0,7 76 0,7 2579 2,6 8,2 --- 9,0
07.04.2021 5,2 4,2 0,8 0,6 3,8 -1,6 88 1,9 1440 3,8 10,4 --- 4,8
06.04.2021 5,9 4,9 0,9 0,5 4,7 -2,1 84 0,2 2540 3,5 13,3 --- 6,5
05.04.2021 7,3 6,3 1,9 1,9 4,4 -2,4 83 2,0 1428 4,3 14,1 --- 4,1
04.04.2021 8,1 8,1 5,2 4,5 9,9 0,9 74 0,0 3411 1,3 6,2 --- 9,2
03.04.2021 8,6 8,7 6,0 5,5 10,1 1,4 70 0,0 3457 2,4 10,8 --- 9,1
02.04.2021 9,2 9,5 7,0 6,3 10,6 4,0 71 0,0 3417 2,9 11,7 --- 8,0
01.04.2021 9,3 10,5 13,1 13,2 21,9 4,0 56 0,0 4207 2,2 11,7 --- 9,3
31.03.2021 8,5 9,4 13,9 14,4 23,7 4,1 45 0,0 4966 1,5 7,6 --- 9,8
30.03.2021 7,8 8,8 13,2 13,7 23,7 3,5 45 0,0 5048 1,1 3,8 --- 9,8
29.03.2021 7,0 8,0 13,7 13,3 19,8 8,2 49 0,0 4793 3,8 9,9 --- 9,7
28.03.2021 6,1 6,0 7,7 7,7 12,4 1,7 69 0,0 2518 3,7 14,2 --- 8,5
27.03.2021 7,0 7,0 6,2 6,2 11,5 1,7 75 2,0 2484 4,6 15,7 --- 6,8
26.03.2021 6,7 7,7 10,9 10,6 15,2 5,4 69 0,0 4065 2,6 10,7 --- 9,1
25.03.2021 5,7 6,3 9,0 9,4 15,2 2,7 68 0,1 3313 1,5 5,4 --- 9,0
24.03.2021 5,1 5,3 7,2 7,2 13,8 0,5 71 0,0 4480 2,3 8,2 --- 9,5
23.03.2021 5,0 5,2 5,4 5,2 9,3 2,6 79 0,0 2004 1,3 5,4 --- 6,3
22.03.2021 4,6 4,7 4,1 3,9 6,5 1,9 85 0,3 1631 2,1 8,2 --- 5,9
21.03.2021 4,4 4,3 4,4 4,3 6,3 2,3 75 0,0 1452 3,1 12,6 --- 5,8
20.03.2021 3,8 3,5 1,5 0,8 5,5 -4,7 59 0,0 4145 1,2 5,6 --- 8,7
19.03.2021 4,1 3,8 2,0 1,7 6,4 -0,9 78 0,1 2614 2,6 12,5 --- 7,5
18.03.2021 4,1 3,6 1,1 0,9 6,0 -2,5 89 1,1 2156 1,0 4,4 --- 6,7
17.03.2021 4,7 4,3 1,9 1,7 4,4 -1,7 81 0,0 1844 1,6 7,2 --- 6,5
16.03.2021 4,8 4,8 3,9 3,9 7,9 1,6 80 0,7 2336 2,1 11,0 --- 6,4
15.03.2021 4,8 4,7 4,1 4,1 7,1 2,2 87 2,4 1564 3,4 11,5 --- 4,9
14.03.2021 4,7 4,5 4,0 4,0 6,7 2,1 86 0,4 1833 5,0 11,7 --- 6,9
13.03.2021 5,1 5,0 4,7 5,1 7,7 2,6 87 9,9 1503 7,1 19,2 --- 4,8
12.03.2021 5,2 5,3 5,9 5,9 8,7 2,6 76 4,2 2181 6,5 17,1 --- 6,0
11.03.2021 4,8 5,3 7,4 7,8 11,7 5,0 80 3,9 1645 6,3 18,1 --- 4,5
10.03.2021 3,9 4,2 5,1 4,8 7,9 2,2 85 0,0 2205 2,1 10,7 --- 6,8
09.03.2021 3,4 3,0 1,7 1,7 3,6 -1,2 92 4,6 1022 1,6 7,4 --- 3,0
08.03.2021 3,4 2,9 1,3 1,3 5,3 -0,5 84 0,2 1296 1,0 3,4 --- 4,9
07.03.2021 3,4 2,5 -0,1 -0,3 5,8 -5,1 80 0,1 3290 1,6 7,4 --- 7,8
06.03.2021 4,1 3,0 -0,1 -0,1 6,6 -5,2 75 0,0 3339 1,1 5,7 --- 7,7
05.03.2021 5,1 4,9 2,4 1,8 5,0 -2,2 77 0,2 2811 2,5 8,4 --- 7,2
04.03.2021 5,3 5,2 5,1 5,7 7,9 1,9 90 6,1 518 1,4 7,0 --- 1,5
03.03.2021 5,0 4,8 5,9 6,4 14,2 -0,4 79 0,0 2513 1,5 7,0 --- 8,2
02.03.2021 5,1 5,1 4,5 4,4 15,1 -1,9 85 0,1 2691 1,1 5,1 --- 7,9
01.03.2021 5,2 5,1 4,5 4,0 10,5 0,2 92 0,0 2241 1,7 9,1 --- 6,6
28.02.2021 5,1 5,1 5,0 4,7 10,4 -0,1 85 0,0 3055 1,7 5,4 --- 7,2
27.02.2021 5,2 4,7 2,7 2,9 4,8 0,6 91 0,0 851 1,3 5,4 --- 2,4
26.02.2021 6,1 6,0 5,3 6,2 11,1 2,6 87 0,0 791 1,4 7,8 --- 2,0
25.02.2021 6,1 6,6 11,1 12,2 17,9 7,9 66 0,0 2614 1,8 8,4 --- 7,1
24.02.2021 5,7 6,5 11,9 13,0 17,9 8,5 70 0,0 2465 1,9 7,2 --- 7,4
23.02.2021 4,8 5,4 10,2 10,8 16,9 5,3 72 0,0 2301 1,7 8,7 --- 7,4
22.02.2021 4,3 4,3 6,3 7,0 14,3 -0,4 78 0,0 2309 1,2 5,8 --- 6,1
21.02.2021 4,3 4,8 9,9 11,1 17,6 5,1 59 0,0 2656 1,6 10,6 --- 6,9
20.02.2021 3,7 4,1 8,5 9,1 16,4 2,6 77 0,0 2258 1,4 8,3 --- 6,9
19.02.2021 3,3 3,7 6,1 6,2 9,0 3,3 80 0,0 2118 3,2 12,6 --- 6,2
18.02.2021 2,4 2,6 5,1 5,8 9,7 -0,8 82 0,2 1176 1,5 9,3 --- 5,6
17.02.2021 1,7 1,7 5,5 5,8 8,5 3,3 89 0,0 1839 3,6 10,5 --- 5,8
16.02.2021 1,6 1,0 3,9 4,3 10,6 0,8 86 0,0 1666 1,6 9,3 --- 4,7
15.02.2021 1,5 0,9 -2,0 -1,4 2,1 -7,7 63 0,1 889 2,1 7,2 --- 2,4
14.02.2021 1,7 0,9 -10,4 -9,1 1,1 -19,3 75 0,4 2455 0,9 7,3 --- 6,9
13.02.2021 1,9 1,2 -11,5 -10,4 -1,9 -17,5 85 0,1 2477 1,4 7,1 --- 6,6
12.02.2021 2,1 1,4 -11,4 -10,6 -4,3 -15,7 87 0,0 2039 2,1 10,7 --- 5,7
11.02.2021 2,1 1,5 -6,5 -6,1 -0,1 -11,7 85 1,2 1529 1,4 5,3 --- 5,3
10.02.2021 2,3 1,5 -12,8 -12,4 -5,3 -19,6 87 0,0 2080 1,0 7,0 --- 6,3
09.02.2021 2,4 1,8 -12,8 -11,9 -6,9 -15,1 85 0,0 1738 1,4 3,7 --- 6,3
08.02.2021 2,6 1,7 -8,0 -8,3 -6,8 -10,4 83 0,0 1489 2,6 8,8 --- 6,8
07.02.2021 3,1 2,2 -4,8 -4,8 -1,8 -7,2 88 0,0 442 6,8 19,6 --- 0,4
06.02.2021 4,0 3,5 1,2 1,4 4,0 -2,1 96 3,2 451 4,1 15,5 --- 0,3
05.02.2021 4,3 4,0 3,6 3,9 6,3 1,3 93 3,0 367 1,3 6,9 --- ---
04.02.2021 4,9 5,3 5,9 6,2 8,6 4,0 86 0,9 1426 2,9 10,1 --- 4,0
03.02.2021 4,1 5,2 8,8 9,2 10,8 7,1 89 1,4 477 4,4 12,8 --- 0,8
02.02.2021 2,5 2,7 4,8 5,0 8,9 2,3 96 1,2 456 2,9 11,2 --- 0,5
01.02.2021 1,9 1,2 0,8 0,8 3,1 -1,1 94 1,5 555 1,5 7,7 --- 1,3
31.01.2021 2,4 1,3 -1,5 -1,5 3,1 -6,1 82 0,0 1645 2,2 8,0 --- 5,1
30.01.2021 3,4 3,2 1,3 1,2 6,5 -1,4 85 0,4 853 3,4 9,9 --- 2,7
29.01.2021 2,7 2,8 4,1 4,2 9,2 0,9 95 0,0 514 2,9 10,0 --- 1,4
28.01.2021 2,2 1,9 1,4 1,5 2,4 0,7 99 0,0 221 1,7 8,1 --- ---
27.01.2021 2,2 1,6 0,4 0,5 1,3 -0,6 92 0,0 483 3,3 8,7 --- ---
26.01.2021 2,2 1,5 0,0 0,2 1,6 -1,4 92 0,2 375 3,2 11,4 --- ---
25.01.2021 2,5 1,6 -1,8 -1,3 2,0 -3,7 95 1,6 899 1,2 6,1 --- 3,9
24.01.2021 3,1 2,3 0,2 0,5 1,7 -0,5 97 4,5 223 1,8 6,2 --- ---
23.01.2021 3,5 2,9 1,4 1,6 3,3 0,1 95 0,1 428 1,3 7,1 --- 0,3
22.01.2021 4,1 4,3 4,5 5,0 9,8 0,5 89 2,4 464 4,1 17,3 --- 0,6
21.01.2021 3,2 3,5 7,3 7,9 10,5 4,3 72 2,9 554 5,1 20,3 --- 2,0
20.01.2021 2,4 2,4 5,2 5,7 9,0 2,6 69 0,0 767 4,3 12,0 --- 2,5
19.01.2021 2,0 1,7 2,2 2,5 4,1 0,9 93 2,5 147 5,5 14,2 --- ---
18.01.2021 1,6 1,0 1,3 1,6 2,7 0,0 95 1,9 470 3,2 10,8 --- 0,6
17.01.2021 1,6 0,7 -1,7 -1,8 0,1 -3,2 91 0,0 398 1,0 4,2 --- 0,1
16.01.2021 1,8 0,9 -2,0 -2,0 -0,8 -2,8 76 0,0 384 2,0 6,2 --- ---
15.01.2021 2,0 1,1 -1,3 -1,2 0,3 -4,0 90 0,0 346 1,3 5,2 --- 0,1
14.01.2021 2,1 1,4 0,2 0,2 2,5 -0,6 84 0,1 586 1,9 9,8 --- 1,4
13.01.2021 2,1 1,3 0,7 1,0 3,5 -0,9 86 0,2 701 4,5 12,2 --- 2,3
12.01.2021 2,2 1,5 0,6 1,0 2,8 -0,9 95 1,7 190 4,4 14,7 --- ---
11.01.2021 2,4 1,4 -0,7 -0,7 0,3 -2,0 82 0,0 830 4,0 12,0 --- 3,3
10.01.2021 2,7 2,0 -0,4 -0,3 1,6 -2,2 88 0,0 667 0,9 4,2 --- 2,2
09.01.2021 2,8 2,1 -0,5 -0,5 0,4 -1,1 94 0,0 337 0,7 4,8 --- ---
08.01.2021 2,8 2,1 0,2 0,1 0,9 -0,5 99 2,5 417 1,8 7,4 --- 0,6
07.01.2021 3,0 2,2 0,2 0,2 1,0 -0,3 93 0,0 428 3,0 7,5 --- 1,2
06.01.2021 3,3 2,6 0,8 0,9 1,5 -0,1 95 0,0 140 1,8 8,3 --- ---
05.01.2021 3,3 2,6 0,6 0,7 1,5 0,3 97 1,0 251 1,7 6,1 --- ---
04.01.2021 3,4 2,7 0,1 0,2 0,6 -0,2 97 0,2 95 1,0 5,2 --- ---
03.01.2021 3,6 2,8 0,8 0,9 1,9 -0,2 89 0,2 167 1,9 8,5 --- ---
02.01.2021 3,7 3,1 1,2 1,4 2,9 0,5 88 0,0 405 0,8 6,0 --- 0,4
01.01.2021 3,8 3,1 0,8 0,8 1,9 0,0 99 2,3 251 0,4 2,8 --- ---

Mittelwerte (Temperaturen, Strahlung, rel. Feuchte, Wind), Summe (Regen) für 2021
5,0 4,9 3,7 3,7 80 107 2.165 2,4

Landesbetrieb Landwirtschaft Hessen 2009

      Werte bis 5 Uhr SommerzeitCSV-Datei: Mardorf21.csvDiagramm: Mardorf